Time;durP1;ratioP1;P1;durP2;ratioP2;P2;SDS_P1;SDS_P2;PMS_P1;PMS_P2;Temp;Humidity;BMP_temperature;BMP_pressure;BME280_temperature;BME280_humidity;BME280_pressure;Samples;Min_cycle;Max_cycle;Signal;HPM_P1;HPM_P2
2019/04/29 00:01:50;;;;;;;4.2;3.1;;;;;;;7.13;73.7334;963.4455;;;;
2019/04/29 00:04:14;;;;;;;3.8;3.1;;;;;;;7.24;73.46777;963.507;;;;
2019/04/29 00:06:39;;;;;;;4.1;3;;;;;;;7.24;73.8916;963.4896;;;;
2019/04/29 00:09:06;;;;;;;5;3.3;;;;;;;7.34;71.9541;963.4526;;;;
2019/04/29 00:11:29;;;;;;;4.4;3.2;;;;;;;7.34;72.37598;963.4096;;;;
2019/04/29 00:13:54;;;;;;;4.9;3.3;;;;;;;7.32;75.21777;963.4713;;;;
2019/04/29 00:16:33;;;;;;;4.2;2.9;;;;;;;7.26;73.91602;963.5314;;;;
2019/04/29 00:21:10;;;;;;;4.8;3.1;;;;;;;7.19;74.41895;963.4713;;;;
2019/04/29 00:23:35;;;;;;;5.4;3.4;;;;;;;7.22;74.92578;963.4781;;;;
2019/04/29 00:26:00;;;;;;;4.7;3.1;;;;;;;7.18;74.1875;963.5067;;;;
2019/04/29 00:28:25;;;;;;;4.5;3.3;;;;;;;7.27;73.17773;963.5046;;;;
2019/04/29 00:30:50;;;;;;;5.2;3.3;;;;;;;7.29;74.56348;963.4987;;;;
2019/04/29 00:33:15;;;;;;;4.3;3.1;;;;;;;7.19;73.00293;963.4495;;;;
2019/04/29 00:35:40;;;;;;;4.9;3.3;;;;;;;7.32;71.95215;963.5054;;;;
2019/04/29 00:43:07;;;;;;;5.1;3.7;;;;;;;7.11;73.45703;963.4894;;;;
2019/04/29 00:45:21;;;;;;;4.3;3.1;;;;;;;7.12;74.79492;963.4631;;;;
2019/04/29 00:47:46;;;;;;;4.7;3.5;;;;;;;7.08;74.15918;963.4961;;;;
2019/04/29 00:50:11;;;;;;;4;3.1;;;;;;;7;73.72461;963.5574;;;;
2019/04/29 00:52:36;;;;;;;5;3.4;;;;;;;7.06;75.29785;963.5666;;;;
2019/04/29 00:55:07;;;;;;;5.2;3.7;;;;;;;6.85;75.75195;963.5502;;;;
2019/04/29 00:57:26;;;;;;;4.7;3.6;;;;;;;6.76;75.9873;963.5172;;;;
2019/04/29 00:59:52;;;;;;;5.7;3.8;;;;;;;6.69;76.05469;963.565;;;;
2019/04/29 01:02:17;;;;;;;5.4;3.5;;;;;;;6.79;75.9707;963.541;;;;
2019/04/29 01:04:45;;;;;;;4.7;3.4;;;;;;;6.81;77.14941;963.5222;;;;
2019/04/29 01:07:36;;;;;;;5.9;3.6;;;;;;;6.79;76.02637;963.5239;;;;
2019/04/29 01:10:20;;;;;;;4.4;3.3;;;;;;;6.78;75.56836;963.5289;;;;
2019/04/29 01:12:45;;;;;;;6.4;3.6;;;;;;;6.98;73.81152;963.5287;;;;
2019/04/29 01:15:15;;;;;;;5.3;3.6;;;;;;;6.97;73.90234;963.5117;;;;
2019/04/29 01:17:46;;;;;;;4.4;3.3;;;;;;;6.91;74.33496;963.5421;;;;
2019/04/29 01:20:12;;;;;;;6.2;3.4;;;;;;;6.81;74.16992;963.544;;;;
2019/04/29 01:22:37;;;;;;;4.3;3.6;;;;;;;6.68;75.80176;963.5226;;;;
2019/04/29 01:25:02;;;;;;;4.3;3.2;;;;;;;6.81;73.49609;963.5876;;;;
2019/04/29 01:27:33;;;;;;;4.5;3.2;;;;;;;6.73;74.56836;963.5666;;;;
2019/04/29 01:30:01;;;;;;;4.1;3.4;;;;;;;6.52;77.11914;963.6495;;;;
2019/04/29 01:32:43;;;;;;;5.1;3.2;;;;;;;6.67;74.16895;963.562;;;;
2019/04/29 01:35:09;;;;;;;4.2;3.3;;;;;;;6.6;74.20215;963.5622;;;;
2019/04/29 01:37:39;;;;;;;4.9;3.4;;;;;;;6.59;76.49414;963.6188;;;;
2019/04/29 01:40:12;;;;;;;4.7;3.5;;;;;;;6.63;75.28027;963.6332;;;;
2019/04/29 01:42:31;;;;;;;5.1;3.5;;;;;;;6.56;76.62305;963.6213;;;;
2019/04/29 01:44:50;;;;;;;5;3.5;;;;;;;6.45;76.67285;963.6369;;;;
2019/04/29 01:47:16;;;;;;;4.8;3.4;;;;;;;6.4;76.81152;963.6008;;;;
2019/04/29 01:49:41;;;;;;;5.9;3.8;;;;;;;6.49;77.22754;963.6685;;;;
2019/04/29 01:52:06;;;;;;;5;3.7;;;;;;;6.48;76.34863;963.6172;;;;
2019/04/29 01:54:32;;;;;;;5.4;3.6;;;;;;;6.58;76.67188;963.6543;;;;
2019/04/29 01:56:57;;;;;;;5.3;3.7;;;;;;;6.6;75.50293;963.627;;;;
2019/04/29 01:59:23;;;;;;;5.4;3.7;;;;;;;6.58;76.37695;963.611;;;;
2019/04/29 02:01:48;;;;;;;5.8;3.8;;;;;;;6.5;76.93262;963.59;;;;
2019/04/29 02:04:13;;;;;;;6.3;3.8;;;;;;;6.53;75.69531;963.6533;;;;
2019/04/29 02:06:39;;;;;;;5.1;3.8;;;;;;;6.46;77.05176;963.6272;;;;
2019/04/29 02:09:04;;;;;;;4.7;3.5;;;;;;;6.59;75.90137;963.6576;;;;
2019/04/29 02:11:29;;;;;;;4.9;3.6;;;;;;;6.62;75.5166;963.6561;;;;
2019/04/29 02:13:54;;;;;;;5.6;3.4;;;;;;;6.68;75.33398;963.6086;;;;
2019/04/29 02:16:19;;;;;;;6.9;4.1;;;;;;;6.57;76.79785;963.603;;;;
2019/04/29 02:18:44;;;;;;;5.8;3.7;;;;;;;6.66;75.81055;963.5753;;;;
2019/04/29 02:21:09;;;;;;;5.1;3.3;;;;;;;6.71;75.24902;963.6066;;;;
2019/04/29 02:23:41;;;;;;;5.4;3.5;;;;;;;6.69;74.7998;963.6209;;;;
2019/04/29 02:26:00;;;;;;;6.2;3.7;;;;;;;6.61;75.11621;963.5658;;;;
2019/04/29 02:28:25;;;;;;;5.8;3.8;;;;;;;6.57;75.4502;963.6248;;;;
2019/04/29 02:30:50;;;;;;;5.6;3.5;;;;;;;6.66;75.76465;963.5323;;;;
2019/04/29 02:33:15;;;;;;;5.8;3.4;;;;;;;6.7;74.12988;963.56;;;;
2019/04/29 02:35:40;;;;;;;5.1;3.4;;;;;;;6.77;75.96582;963.5425;;;;
2019/04/29 02:38:08;;;;;;;6.5;3.5;;;;;;;6.71;75.8291;963.5594;;;;
2019/04/29 02:40:37;;;;;;;5.4;3.8;;;;;;;6.73;75.12695;963.5062;;;;
2019/04/29 02:43:00;;;;;;;6.2;3.4;;;;;;;6.67;73.75684;963.4758;;;;
2019/04/29 02:45:24;;;;;;;5.3;3.5;;;;;;;6.65;74.08594;963.4163;;;;
2019/04/29 02:47:58;;;;;;;5.8;3.4;;;;;;;6.7;74.65332;963.4738;;;;
2019/04/29 02:50:23;;;;;;;5.4;3.7;;;;;;;6.64;74.92676;963.4559;;;;
2019/04/29 02:52:48;;;;;;;5.7;3.3;;;;;;;6.79;74.25977;963.3555;;;;
2019/04/29 02:55:23;;;;;;;5.8;3.7;;;;;;;6.7;75.36133;963.3527;;;;
2019/04/29 02:58:02;;;;;;;5.2;3.5;;;;;;;6.63;74.63086;963.3352;;;;
2019/04/29 03:01:24;;;;;;;5.7;3.5;;;;;;;6.7;75.00781;963.3309;;;;
2019/04/29 03:02:41;;;;;;;5.7;3.5;;;;;;;6.73;75.35547;963.3162;;;;
2019/04/29 03:06:00;;;;;;;6.1;3.5;;;;;;;6.65;74.00684;963.3432;;;;
2019/04/29 03:07:23;;;;;;;6.1;3.9;;;;;;;6.61;74.79688;963.2807;;;;
2019/04/29 03:09:48;;;;;;;4.8;3.3;;;;;;;6.62;73.59082;963.3317;;;;
2019/04/29 03:12:16;;;;;;;5.5;3.4;;;;;;;6.54;75.05957;963.3325;;;;
2019/04/29 03:14:41;;;;;;;5.6;3.5;;;;;;;6.58;74.40332;963.3605;;;;
2019/04/29 03:17:06;;;;;;;6.4;3.8;;;;;;;6.44;74.68945;963.2961;;;;
2019/04/29 03:19:36;;;;;;;6.2;3.7;;;;;;;6.45;74.97363;963.3173;;;;
2019/04/29 03:21:58;;;;;;;4.9;3.6;;;;;;;6.41;74.70605;963.3716;;;;
2019/04/29 03:24:24;;;;;;;7.1;3.8;;;;;;;6.44;76.1582;963.3354;;;;
2019/04/29 03:26:49;;;;;;;7;3.5;;;;;;;6.54;75.68652;963.2853;;;;
2019/04/29 03:29:23;;;;;;;8.3;3.5;;;;;;;6.65;74.39258;963.2484;;;;
2019/04/29 03:31:39;;;;;;;6.7;4;;;;;;;6.6;75.34277;963.2425;;;;
2019/04/29 03:34:04;;;;;;;5.1;4;;;;;;;6.56;75.94043;963.215;;;;
2019/04/29 03:36:31;;;;;;;5.8;3.9;;;;;;;6.54;76.66699;963.2076;;;;
2019/04/29 03:39:09;;;;;;;6.7;4.5;;;;;;;6.55;74.90039;963.2415;;;;
2019/04/29 03:41:34;;;;;;;7.6;4.4;;;;;;;6.41;76.64355;963.2939;;;;
2019/04/29 03:43:59;;;;;;;5.3;4;;;;;;;6.47;76.5752;963.3417;;;;
2019/04/29 03:46:36;;;;;;;6.4;4.2;;;;;;;6.51;76.27344;963.3044;;;;
2019/04/29 03:49:11;;;;;;;5.7;4;;;;;;;6.53;76.53906;963.2818;;;;
2019/04/29 03:51:42;;;;;;;4.9;3.9;;;;;;;6.6;75.39941;963.2855;;;;
2019/04/29 03:54:28;;;;;;;6.2;3.9;;;;;;;6.62;75.93945;963.2675;;;;
2019/04/29 03:56:55;;;;;;;5.4;4.1;;;;;;;6.51;75.87402;963.2703;;;;
2019/04/29 03:59:20;;;;;;;6.9;4.4;;;;;;;6.57;77.01465;963.3569;;;;
2019/04/29 04:02:53;;;;;;;7;4.4;;;;;;;6.47;76.46094;963.2941;;;;
2019/04/29 04:05:26;;;;;;;6;4.4;;;;;;;6.43;76.03125;963.2622;;;;
2019/04/29 04:07:50;;;;;;;7;4.2;;;;;;;6.33;75.64746;963.3251;;;;
2019/04/29 04:10:00;;;;;;;7.3;4.3;;;;;;;6.29;76.79199;963.3448;;;;
2019/04/29 04:12:25;;;;;;;5.8;4.2;;;;;;;6.26;77.08301;963.342;;;;
2019/04/29 04:14:50;;;;;;;7.2;4.9;;;;;;;6.21;77.78027;963.4537;;;;
2019/04/29 04:17:26;;;;;;;6.8;4.7;;;;;;;6.24;76.71387;963.4818;;;;
2019/04/29 04:19:42;;;;;;;6.7;4.8;;;;;;;6.25;76.90137;963.4292;;;;
2019/04/29 04:22:07;;;;;;;8.1;5.5;;;;;;;6.21;76.21875;963.4838;;;;
2019/04/29 04:24:32;;;;;;;7.6;5.2;;;;;;;6.15;77.71484;963.4612;;;;
2019/04/29 04:26:57;;;;;;;7.7;5;;;;;;;6.23;77.53418;963.4694;;;;
2019/04/29 04:29:24;;;;;;;8.1;5;;;;;;;6.3;76.98926;963.4821;;;;
2019/04/29 04:31:49;;;;;;;7.2;5;;;;;;;6.37;76.86523;963.4949;;;;
2019/04/29 04:34:15;;;;;;;6.2;4.2;;;;;;;6.35;76.72363;963.5092;;;;
2019/04/29 04:36:40;;;;;;;6;4.5;;;;;;;6.37;75.90625;963.564;;;;
2019/04/29 04:39:05;;;;;;;6;4.3;;;;;;;6.31;77.1709;963.5637;;;;
2019/04/29 04:41:30;;;;;;;7.7;4.6;;;;;;;6.33;77.81445;963.6013;;;;
2019/04/29 04:43:55;;;;;;;7.2;4.6;;;;;;;6.34;77.73633;963.5875;;;;
2019/04/29 04:46:21;;;;;;;7.5;4.7;;;;;;;6.31;77.46875;963.6368;;;;
2019/04/29 04:48:46;;;;;;;9;4.6;;;;;;;6.38;77.20703;963.6026;;;;
2019/04/29 04:51:12;;;;;;;7.1;4.3;;;;;;;6.33;76.68555;963.6531;;;;
2019/04/29 04:53:43;;;;;;;8.1;4.9;;;;;;;6.38;77.77832;963.7186;;;;
2019/04/29 04:56:20;;;;;;;8.2;4.7;;;;;;;6.43;76.6582;963.6682;;;;
2019/04/29 04:58:45;;;;;;;5.5;4.8;;;;;;;6.48;77.7373;963.6261;;;;
2019/04/29 05:01:16;;;;;;;6.3;4.5;;;;;;;6.46;77.40527;963.6749;;;;
2019/04/29 05:03:41;;;;;;;7.5;4.9;;;;;;;6.36;78.08105;963.7764;;;;
2019/04/29 05:06:06;;;;;;;7.7;5.1;;;;;;;6.28;77.01855;963.764;;;;
2019/04/29 05:08:32;;;;;;;7.7;5.2;;;;;;;6.4;76.83594;963.7349;;;;
2019/04/29 05:10:57;;;;;;;6.4;4.6;;;;;;;6.4;76.75586;963.8125;;;;
2019/04/29 05:13:23;;;;;;;6;4.4;;;;;;;6.55;75.97168;963.7599;;;;
2019/04/29 05:15:48;;;;;;;6.9;5.1;;;;;;;6.45;77.15137;963.7664;;;;
2019/04/29 05:18:14;;;;;;;8.9;4.7;;;;;;;6.52;77.36914;963.8091;;;;
2019/04/29 05:20:39;;;;;;;8.2;4.9;;;;;;;6.61;76.40527;963.7905;;;;
2019/04/29 05:23:04;;;;;;;5.5;4.5;;;;;;;6.55;76.72461;963.8203;;;;
2019/04/29 05:25:30;;;;;;;6.7;4.6;;;;;;;6.63;76.12305;963.8753;;;;
2019/04/29 05:27:55;;;;;;;6.6;4.7;;;;;;;6.53;75.83203;963.8777;;;;
2019/04/29 05:30:22;;;;;;;6.8;4.8;;;;;;;6.63;76.4082;963.8799;;;;
2019/04/29 05:32:47;;;;;;;7.8;4.8;;;;;;;6.66;75.75098;963.8521;;;;
2019/04/29 05:35:27;;;;;;;8.2;4.9;;;;;;;6.6;75.83301;963.8643;;;;
2019/04/29 05:37:59;;;;;;;9.1;5;;;;;;;6.6;76.08398;963.9031;;;;
2019/04/29 05:40:37;;;;;;;7.7;4.9;;;;;;;6.74;76.55469;963.9373;;;;
2019/04/29 05:42:46;;;;;;;7.4;5.4;;;;;;;6.85;75.80957;963.952;;;;
2019/04/29 05:45:22;;;;;;;7.2;4.9;;;;;;;6.8;76.26758;963.9339;;;;
2019/04/29 05:47:52;;;;;;;9;5.4;;;;;;;6.77;78.03125;963.927;;;;
2019/04/29 05:50:22;;;;;;;6.9;5.3;;;;;;;6.79;76.12891;963.9127;;;;
2019/04/29 05:52:50;;;;;;;10.2;5.6;;;;;;;6.92;76.0498;963.9818;;;;
2019/04/29 05:55:09;;;;;;;9.4;5.4;;;;;;;6.94;75.14063;964.0581;;;;
2019/04/29 05:57:43;;;;;;;8.4;5.4;;;;;;;6.95;74.42285;964.0706;;;;
2019/04/29 06:00:26;;;;;;;7.6;5.3;;;;;;;6.99;75.44629;964.0291;;;;
2019/04/29 06:03:05;;;;;;;7.6;5.4;;;;;;;7.06;75.20605;964.0636;;;;
2019/04/29 06:05:30;;;;;;;8.8;5.3;;;;;;;7.14;74.18262;964.0578;;;;
2019/04/29 06:07:56;;;;;;;7.8;5.6;;;;;;;7.16;74.65234;964.0787;;;;
2019/04/29 06:10:22;;;;;;;8.9;5.6;;;;;;;7.17;74.26758;964.1124;;;;
2019/04/29 06:12:47;;;;;;;9.6;5.6;;;;;;;7.25;74.78418;964.1415;;;;
2019/04/29 06:15:12;;;;;;;7.7;5.6;;;;;;;7.28;74.57129;964.1436;;;;
2019/04/29 06:17:39;;;;;;;10.8;5.6;;;;;;;7.23;73.91113;964.1778;;;;
2019/04/29 06:20:06;;;;;;;9.4;5.6;;;;;;;7.27;74.73047;964.2356;;;;
2019/04/29 06:22:34;;;;;;;9;5.3;;;;;;;7.48;73.08594;964.1696;;;;
2019/04/29 06:24:59;;;;;;;7.8;5.4;;;;;;;7.5;74.49609;964.2152;;;;
2019/04/29 06:27:25;;;;;;;9.3;5.3;;;;;;;7.53;72.34082;964.2999;;;;
2019/04/29 06:29:50;;;;;;;8.5;5.4;;;;;;;7.43;71.63867;964.2117;;;;
2019/04/29 06:32:15;;;;;;;7.9;5.6;;;;;;;7.34;72.55957;964.2267;;;;
2019/04/29 06:34:41;;;;;;;8.3;5.2;;;;;;;7.36;74.31152;964.2725;;;;
2019/04/29 06:37:06;;;;;;;8.8;5.5;;;;;;;7.41;74.04492;964.304;;;;
2019/04/29 06:39:32;;;;;;;7.4;5.5;;;;;;;7.52;74.87695;964.2963;;;;
2019/04/29 06:41:57;;;;;;;7.9;5.4;;;;;;;7.63;72.84961;964.2892;;;;
2019/04/29 06:44:22;;;;;;;8.5;5.2;;;;;;;7.76;72.6543;964.4011;;;;
2019/04/29 06:46:47;;;;;;;7.5;5.5;;;;;;;7.71;71.99414;964.305;;;;
2019/04/29 06:49:12;;;;;;;9;5.3;;;;;;;7.83;72.23242;964.3095;;;;
2019/04/29 06:51:41;;;;;;;8.6;5.4;;;;;;;7.8;72.5459;964.3206;;;;
2019/04/29 06:54:06;;;;;;;7.6;5.5;;;;;;;7.96;72.6748;964.3144;;;;
2019/04/29 06:56:32;;;;;;;9.6;5.9;;;;;;;8.09;71.61035;964.3052;;;;
2019/04/29 06:58:57;;;;;;;8.7;6;;;;;;;8.18;72.48535;964.3459;;;;
2019/04/29 07:01:24;;;;;;;9.3;5.7;;;;;;;8.13;71.28613;964.3278;;;;
2019/04/29 07:03:47;;;;;;;9.8;5.9;;;;;;;8.06;72.38477;964.3593;;;;
2019/04/29 07:06:12;;;;;;;8.1;5.8;;;;;;;8.15;71.74707;964.3571;;;;
2019/04/29 07:08:37;;;;;;;7.8;5.6;;;;;;;8.27;72.28125;964.3614;;;;
2019/04/29 07:11:06;;;;;;;8.7;5.6;;;;;;;8.2;71.92773;964.3881;;;;
2019/04/29 07:13:31;;;;;;;8.7;5.4;;;;;;;8.32;71.54688;964.3152;;;;
2019/04/29 07:15:57;;;;;;;8.9;5.7;;;;;;;8.45;71.24805;964.3191;;;;
2019/04/29 07:18:22;;;;;;;8.7;5.3;;;;;;;8.51;70.48828;964.3886;;;;
2019/04/29 07:20:47;;;;;;;12.6;5.8;;;;;;;8.33;70.08203;964.3918;;;;
2019/04/29 07:23:12;;;;;;;8.8;5.6;;;;;;;8.27;71.97266;964.375;;;;
2019/04/29 07:25:37;;;;;;;10.5;5.9;;;;;;;8.43;71.64551;964.4281;;;;
2019/04/29 07:28:02;;;;;;;9.5;6.4;;;;;;;8.41;70.17578;964.3219;;;;
2019/04/29 07:30:27;;;;;;;10.3;6.6;;;;;;;8.39;71.82324;964.3748;;;;
2019/04/29 07:32:53;;;;;;;8.8;5.8;;;;;;;8.62;71.63184;964.3066;;;;
2019/04/29 07:35:19;;;;;;;10.6;6.3;;;;;;;8.76;69.625;964.3354;;;;
2019/04/29 07:37:44;;;;;;;9.4;5.5;;;;;;;8.93;70.2832;964.3233;;;;
2019/04/29 07:40:09;;;;;;;9.1;5.3;;;;;;;9.05;68.68555;964.3929;;;;
2019/04/29 07:42:35;;;;;;;9.5;5.6;;;;;;;8.95;68.44043;964.3524;;;;
2019/04/29 07:47:37;;;;;;;10.8;6.4;;;;;;;8.9;68.15625;964.2693;;;;
2019/04/29 07:50:05;;;;;;;10.2;5.7;;;;;;;8.91;69.63867;964.277;;;;
2019/04/29 07:52:44;;;;;;;11.4;6.6;;;;;;;8.99;68.42578;964.2709;;;;
2019/04/29 07:55:23;;;;;;;9.9;6.2;;;;;;;9.07;68.42383;964.2961;;;;
2019/04/29 07:58:01;;;;;;;10.3;6;;;;;;;9.14;68.95215;964.282;;;;
2019/04/29 08:00:38;;;;;;;12.6;8.7;;;;;;;9.18;68.38574;964.2484;;;;
2019/04/29 08:03:06;;;;;;;10.9;8.6;;;;;;;9.21;69.85938;964.2375;;;;
2019/04/29 08:05:30;;;;;;;10.1;6.8;;;;;;;9.35;68.40137;964.2228;;;;
2019/04/29 08:07:55;;;;;;;11.2;6.4;;;;;;;9.52;68.57715;964.2795;;;;
2019/04/29 08:10:20;;;;;;;12.5;7.2;;;;;;;9.65;66.40332;964.2955;;;;
2019/04/29 08:12:45;;;;;;;11.7;6.7;;;;;;;9.58;67.88672;964.2919;;;;
2019/04/29 08:15:11;;;;;;;10.6;6;;;;;;;9.74;67.14258;964.2755;;;;
2019/04/29 08:17:36;;;;;;;13.2;5.9;;;;;;;9.81;67.42773;964.24;;;;
2019/04/29 08:20:01;;;;;;;12.8;6.9;;;;;;;9.94;67.17188;964.248;;;;
2019/04/29 08:22:26;;;;;;;11;6.2;;;;;;;10.06;66.39941;964.2336;;;;
2019/04/29 08:24:52;;;;;;;12.1;7.4;;;;;;;10.08;66.36816;964.2538;;;;
2019/04/29 08:27:17;;;;;;;12.7;7.3;;;;;;;10.09;66.9541;964.258;;;;
2019/04/29 08:29:42;;;;;;;14.3;6.9;;;;;;;10.13;65.47949;964.2322;;;;
2019/04/29 08:32:09;;;;;;;12;6.9;;;;;;;10.08;64.33301;964.2367;;;;
2019/04/29 08:34:34;;;;;;;11.6;6.9;;;;;;;10.28;65.91504;964.2294;;;;
2019/04/29 08:36:59;;;;;;;11.6;6;;;;;;;10.42;64.81934;964.2626;;;;
2019/04/29 08:39:24;;;;;;;11.2;6.5;;;;;;;10.57;64.74023;964.2285;;;;
2019/04/29 08:41:50;;;;;;;13.5;6.8;;;;;;;10.71;63.58594;964.2916;;;;
2019/04/29 08:44:32;;;;;;;12.5;6.6;;;;;;;10.88;62.96484;964.2216;;;;
2019/04/29 08:46:45;;;;;;;11.4;6.6;;;;;;;10.83;61.97949;964.2645;;;;
2019/04/29 08:49:06;;;;;;;11.4;6.4;;;;;;;10.76;62.4873;964.2919;;;;
2019/04/29 08:51:33;;;;;;;10.8;6.6;;;;;;;10.81;61.15918;964.2835;;;;
2019/04/29 08:53:58;;;;;;;13.9;6.6;;;;;;;10.96;61.44434;964.2237;;;;
2019/04/29 08:56:23;;;;;;;12.9;6.9;;;;;;;11;61.7041;964.2506;;;;
2019/04/29 08:58:49;;;;;;;13.8;7.6;;;;;;;10.84;62.24609;964.2502;;;;
2019/04/29 09:01:14;;;;;;;11.8;7.3;;;;;;;10.74;62.4043;964.2371;;;;
2019/04/29 09:03:39;;;;;;;10.3;6.4;;;;;;;10.72;62.74707;964.26;;;;
2019/04/29 09:06:05;;;;;;;11.2;6.6;;;;;;;10.76;62.10742;964.2397;;;;
2019/04/29 09:08:31;;;;;;;12.2;6.1;;;;;;;10.8;61.86035;964.2712;;;;
2019/04/29 09:10:56;;;;;;;12.4;6.3;;;;;;;11.03;61.21191;964.231;;;;
2019/04/29 09:13:21;;;;;;;11;6.9;;;;;;;11.12;60.16504;964.2365;;;;
2019/04/29 09:15:47;;;;;;;12.4;6.9;;;;;;;10.95;59.39355;964.12;;;;
2019/04/29 09:18:12;;;;;;;13.2;8.8;;;;;;;11.13;59.45313;964.1008;;;;
2019/04/29 09:20:37;;;;;;;13.1;6.7;;;;;;;11.14;59.06152;964.074;;;;
2019/04/29 09:23:06;;;;;;;14;6.4;;;;;;;11.11;59.24219;964.0984;;;;
2019/04/29 09:25:39;;;;;;;10.9;5.9;;;;;;;11.32;58.42871;964.1459;;;;
2019/04/29 09:27:54;;;;;;;11.1;5.8;;;;;;;11.46;58.1377;964.0995;;;;
2019/04/29 09:30:19;;;;;;;11.3;5.9;;;;;;;11.54;57.67578;964.1534;;;;
2019/04/29 09:32:44;;;;;;;9.5;5.9;;;;;;;11.66;56.54883;964.0255;;;;
2019/04/29 09:35:15;;;;;;;12.3;6.6;;;;;;;11.72;55.95508;964.0472;;;;
2019/04/29 09:37:41;;;;;;;10.5;5.7;;;;;;;11.62;57.40918;964.0378;;;;
2019/04/29 09:40:06;;;;;;;10.9;5.5;;;;;;;11.6;54.99414;964.0568;;;;
2019/04/29 09:42:38;;;;;;;10.1;4.9;;;;;;;11.66;53.94043;964.0475;;;;
2019/04/29 09:45:00;;;;;;;9.6;4.5;;;;;;;11.66;53.59473;964.0255;;;;
2019/04/29 09:47:21;;;;;;;10.5;4.8;;;;;;;11.7;53.47266;963.9359;;;;
2019/04/29 09:49:46;;;;;;;23.5;11.3;;;;;;;11.74;52.23145;963.971;;;;
2019/04/29 09:52:11;;;;;;;43.4;18.8;;;;;;;11.83;52.91016;964.0381;;;;
2019/04/29 09:54:36;;;;;;;23.6;10.2;;;;;;;11.89;51.71777;963.9981;;;;
2019/04/29 09:57:01;;;;;;;12.3;5.1;;;;;;;11.91;50.43945;963.9791;;;;
2019/04/29 09:59:31;;;;;;;18.7;8.4;;;;;;;12.04;50.53516;963.9767;;;;
2019/04/29 10:05:37;;;;;;;21.1;8.9;;;;;;;11.86;51.54102;963.9705;;;;
2019/04/29 10:07:51;;;;;;;10.3;5.5;;;;;;;11.83;52.64551;963.9598;;;;
2019/04/29 10:10:16;;;;;;;10.2;4.8;;;;;;;11.77;51.90039;964.0165;;;;
2019/04/29 10:12:43;;;;;;;9.3;4.6;;;;;;;11.64;51.58496;963.9796;;;;
2019/04/29 10:15:10;;;;;;;7.6;3.8;;;;;;;11.63;52.73633;963.9807;;;;
2019/04/29 10:20:25;;;;;;;9.9;4.7;;;;;;;11.59;55.39746;963.9318;;;;
2019/04/29 10:22:41;;;;;;;11.6;5;;;;;;;11.64;55.49512;963.9844;;;;
2019/04/29 10:25:07;;;;;;;9.5;4.5;;;;;;;11.61;54.99609;963.8997;;;;
2019/04/29 10:27:32;;;;;;;10.6;4.4;;;;;;;11.63;54.00586;963.8411;;;;
2019/04/29 10:29:57;;;;;;;10.2;4.4;;;;;;;11.51;53.78418;963.8206;;;;
2019/04/29 10:32:22;;;;;;;8.8;4.8;;;;;;;11.48;54.94434;963.8019;;;;
2019/04/29 10:34:51;;;;;;;10.1;4.9;;;;;;;11.3;56.00488;963.7692;;;;
2019/04/29 10:37:16;;;;;;;11;5.3;;;;;;;11.18;56.68262;963.7918;;;;
2019/04/29 10:39:46;;;;;;;10.2;5.5;;;;;;;11.05;58.3457;963.7422;;;;
2019/04/29 10:42:06;;;;;;;9.3;5.6;;;;;;;10.88;59.11816;963.778;;;;
2019/04/29 10:44:38;;;;;;;10.1;5.4;;;;;;;10.82;60.50391;963.7692;;;;
2019/04/29 10:47:07;;;;;;;10;5.1;;;;;;;10.87;59.94727;963.813;;;;
2019/04/29 10:49:28;;;;;;;11.5;5.3;;;;;;;10.62;61.08594;963.9291;;;;
2019/04/29 10:51:49;;;;;;;9.9;5.3;;;;;;;10.39;67.13965;964.0435;;;;
2019/04/29 10:54:15;;;;;;;9.1;5.5;;;;;;;10.03;67.05957;964.0323;;;;
2019/04/29 10:56:53;;;;;;;10.8;6.6;;;;;;;9.66;72.58398;964.0955;;;;
2019/04/29 10:59:18;;;;;;;12.6;7.1;;;;;;;9.59;76.14453;963.9576;;;;
2019/04/29 11:01:53;;;;;;;11.3;6.8;;;;;;;9.54;74.45996;963.9264;;;;
2019/04/29 11:04:08;;;;;;;11.3;7.1;;;;;;;9.52;74.07715;963.889;;;;
2019/04/29 11:06:33;;;;;;;19.4;13;;;;;;;9.66;74.88086;963.8912;;;;
2019/04/29 11:11:25;;;;;;;10;6.5;;;;;;;9.9;74.92285;963.8859;;;;
2019/04/29 11:13:49;;;;;;;11.8;6.7;;;;;;;9.88;74.91992;963.8791;;;;
2019/04/29 11:16:14;;;;;;;11.1;5.8;;;;;;;9.9;68.72852;963.8209;;;;
2019/04/29 11:18:39;;;;;;;9.6;6;;;;;;;10.01;70.54102;963.851;;;;
2019/04/29 11:21:04;;;;;;;11.3;6.7;;;;;;;10.03;72.30078;963.7458;;;;
2019/04/29 11:23:41;;;;;;;10.5;6.5;;;;;;;10.1;72.61133;963.7965;;;;
2019/04/29 11:26:14;;;;;;;13;7.1;;;;;;;10.26;69.87891;963.7144;;;;
2019/04/29 11:28:20;;;;;;;11.6;6.9;;;;;;;10.22;71.74707;963.6523;;;;
2019/04/29 11:30:45;;;;;;;12.4;6.9;;;;;;;10.16;71.47266;963.7094;;;;
2019/04/29 11:33:16;;;;;;;13.7;8.6;;;;;;;10.21;70.50391;963.7442;;;;
2019/04/29 11:35:42;;;;;;;9.5;6;;;;;;;10.09;70.4043;963.71;;;;
2019/04/29 11:38:00;;;;;;;11.1;6;;;;;;;10.12;69.28223;963.6603;;;;
2019/04/29 11:40:25;;;;;;;10.4;5.8;;;;;;;10.05;69.81055;963.7438;;;;
2019/04/29 11:42:53;;;;;;;9.6;5.2;;;;;;;9.88;68.02637;963.6398;;;;
2019/04/29 11:45:18;;;;;;;10.1;5.6;;;;;;;9.92;69.74316;963.6889;;;;
2019/04/29 11:47:49;;;;;;;8.4;5.3;;;;;;;10.06;69.43457;963.5692;;;;
2019/04/29 11:50:35;;;;;;;7.9;4.8;;;;;;;10.17;68.03711;963.5039;;;;
2019/04/29 11:53:13;;;;;;;8.3;4.9;;;;;;;10.32;66.47363;963.575;;;;
2019/04/29 11:55:37;;;;;;;8.2;5;;;;;;;10.39;67.85352;963.5213;;;;
2019/04/29 11:58:09;;;;;;;9.2;5;;;;;;;10.54;68.63574;963.4705;;;;
2019/04/29 12:00:55;;;;;;;7.7;4.4;;;;;;;10.64;70.9082;963.4451;;;;
2019/04/29 12:03:11;;;;;;;8.6;4.6;;;;;;;10.71;65.02539;963.457;;;;
2019/04/29 12:05:40;;;;;;;9.6;4.9;;;;;;;10.74;65.92676;963.4757;;;;
2019/04/29 12:08:02;;;;;;;8.2;4.7;;;;;;;10.65;65.02539;963.4836;;;;
2019/04/29 12:10:28;;;;;;;8.6;4.7;;;;;;;10.58;67.39844;963.4543;;;;
2019/04/29 12:12:53;;;;;;;9.4;4.7;;;;;;;10.52;67.49219;963.4242;;;;
2019/04/29 12:16:03;;;;;;;8.5;5.4;;;;;;;10.51;68.41211;963.4119;;;;
2019/04/29 12:18:31;;;;;;;34.8;7.8;;;;;;;10.36;68.07715;963.3331;;;;
2019/04/29 12:20:15;;;;;;;12.9;6.2;;;;;;;10.34;72.20508;963.4213;;;;
2019/04/29 12:22:33;;;;;;;12.4;5.8;;;;;;;10.43;71.93262;963.3926;;;;
2019/04/29 12:24:59;;;;;;;11.3;5.6;;;;;;;10.47;68.49902;963.389;;;;
2019/04/29 12:27:25;;;;;;;10.5;5;;;;;;;10.64;66.63672;963.3621;;;;
2019/04/29 12:29:50;;;;;;;9.3;5;;;;;;;10.69;66.01074;963.2892;;;;
2019/04/29 12:33:04;;;;;;;10.8;5.2;;;;;;;10.8;64.79688;963.2449;;;;
2019/04/29 12:34:47;;;;;;;8.3;4.2;;;;;;;10.92;64.45801;963.3177;;;;
2019/04/29 12:37:13;;;;;;;8.3;4.5;;;;;;;11.05;63.99316;963.2766;;;;
2019/04/29 12:44:25;;;;;;;7.6;4.3;;;;;;;10.96;60.14355;963.3358;;;;
2019/04/29 12:46:58;;;;;;;46.8;9.2;;;;;;;10.87;62.22754;963.1347;;;;
2019/04/29 12:49:11;;;;;;;6.8;4.1;;;;;;;10.81;63.97852;963.2228;;;;
2019/04/29 12:51:36;;;;;;;8.8;4.1;;;;;;;10.71;61.53613;963.2784;;;;
2019/04/29 12:54:01;;;;;;;7.8;4.2;;;;;;;10.59;63.70508;963.2363;;;;
2019/04/29 12:56:33;;;;;;;8.5;4.1;;;;;;;10.72;65.1416;963.1514;;;;
2019/04/29 12:58:51;;;;;;;8.2;4.5;;;;;;;10.84;64.62891;963.1853;;;;
2019/04/29 13:01:24;;;;;;;8.8;4.2;;;;;;;10.92;66.19727;963.1783;;;;
2019/04/29 13:04:04;;;;;;;8.1;5.4;;;;;;;10.8;66.20117;963.1534;;;;
2019/04/29 13:06:11;;;;;;;9.1;4.5;;;;;;;10.92;63.24707;963.1266;;;;
2019/04/29 13:08:35;;;;;;;11.2;6.2;;;;;;;10.74;64.46484;963.0803;;;;
2019/04/29 13:11:01;;;;;;;8.4;4.7;;;;;;;10.76;66.87402;963.1661;;;;
2019/04/29 13:13:21;;;;;;;8.5;4.6;;;;;;;10.81;65.95117;963.1699;;;;
2019/04/29 13:18:17;;;;;;;8.7;4.8;;;;;;;10.76;64.62891;963.0658;;;;
2019/04/29 13:20:37;;;;;;;7.9;4.8;;;;;;;10.72;67.77832;963.0519;;;;
2019/04/29 13:23:03;;;;;;;7.2;4.9;;;;;;;10.77;67.1748;963.0692;;;;
2019/04/29 13:25:28;;;;;;;20.9;5.7;;;;;;;10.83;66.61035;963.0988;;;;
2019/04/29 13:27:53;;;;;;;8.8;4.2;;;;;;;10.68;61.95703;963.0422;;;;
2019/04/29 13:30:18;;;;;;;6.1;3.8;;;;;;;10.65;61.97656;963.0662;;;;
2019/04/29 13:32:43;;;;;;;7;4;;;;;;;10.63;63.93066;962.9984;;;;
2019/04/29 13:35:09;;;;;;;6;3.7;;;;;;;10.74;65.15527;962.998;;;;
2019/04/29 13:37:34;;;;;;;8.1;4;;;;;;;10.98;64.98438;962.9693;;;;
2019/04/29 13:39:59;;;;;;;6.5;4.1;;;;;;;10.97;63.50879;962.9305;;;;
2019/04/29 13:42:24;;;;;;;6.7;4.3;;;;;;;11.03;63.83887;962.9172;;;;
2019/04/29 13:44:49;;;;;;;25.6;6.1;;;;;;;10.99;65.91895;962.9246;;;;
2019/04/29 13:49:46;;;;;;;8.6;5.8;;;;;;;10.61;70.70801;962.9083;;;;
2019/04/29 13:52:05;;;;;;;8.5;5.9;;;;;;;10.63;68.86914;962.9071;;;;
2019/04/29 13:54:30;;;;;;;8.8;6.1;;;;;;;10.75;73.52734;962.8881;;;;
2019/04/29 13:57:08;;;;;;;9.6;6.2;;;;;;;10.92;70.06641;962.8656;;;;
2019/04/29 13:59:52;;;;;;;9.2;5.7;;;;;;;10.94;70.25391;962.8727;;;;
2019/04/29 14:02:26;;;;;;;8.7;5.4;;;;;;;10.94;69.22852;962.8727;;;;
2019/04/29 14:04:38;;;;;;;7.7;5.3;;;;;;;10.9;67.41406;962.8409;;;;
2019/04/29 14:07:00;;;;;;;10.6;5.6;;;;;;;10.95;65.31445;962.8153;;;;
2019/04/29 14:09:49;;;;;;;7;5.5;;;;;;;10.72;65.2793;962.8172;;;;
2019/04/29 14:12:24;;;;;;;9;5.4;;;;;;;10.49;67.55762;962.779;;;;
2019/04/29 14:14:51;;;;;;;7.3;5;;;;;;;10.36;66.57031;962.8035;;;;
2019/04/29 14:17:16;;;;;;;7.2;5.2;;;;;;;10.39;68.72656;962.6919;;;;
2019/04/29 14:19:41;;;;;;;8;5.5;;;;;;;10.55;68.90234;962.6917;;;;
2019/04/29 14:22:06;;;;;;;9.3;5.6;;;;;;;10.58;65.22461;962.663;;;;
2019/04/29 14:24:54;;;;;;;9.4;6.1;;;;;;;10.68;64.90527;962.6722;;;;
2019/04/29 14:27:23;;;;;;;10.9;8.7;;;;;;;10.66;64.42969;962.5656;;;;
2019/04/29 14:29:55;;;;;;;10.1;6.2;;;;;;;10.76;63.77637;962.6223;;;;
2019/04/29 14:32:22;;;;;;;8.8;5.9;;;;;;;10.85;64.16992;962.5234;;;;
2019/04/29 14:37:15;;;;;;;8.2;5.1;;;;;;;10.67;64.60352;962.5167;;;;
2019/04/29 14:39:40;;;;;;;7;4.5;;;;;;;10.73;63.02539;962.5329;;;;
2019/04/29 14:42:15;;;;;;;6.6;4.7;;;;;;;10.73;62.24121;962.616;;;;
2019/04/29 14:44:38;;;;;;;7.4;4.6;;;;;;;10.56;62.88477;962.5389;;;;
2019/04/29 14:47:40;;;;;;;8.4;5;;;;;;;10.47;65.86328;962.5897;;;;
2019/04/29 14:49:23;;;;;;;7.2;4.8;;;;;;;10.17;65.08105;962.5355;;;;
2019/04/29 14:51:45;;;;;;;9.2;5.2;;;;;;;10.13;67.78906;962.5433;;;;
2019/04/29 14:54:10;;;;;;;8;5.1;;;;;;;10.22;68.52734;962.5618;;;;
2019/04/29 14:56:35;;;;;;;8.3;4.9;;;;;;;10.13;68.16992;962.5514;;;;